createdAt,value
2017-04-04T00:02:04.998Z,5.82
2017-04-04T00:12:04.983Z,5.63
2017-04-04T00:22:04.923Z,5.4
2017-04-04T00:32:04.996Z,5.34
2017-04-04T00:42:04.996Z,5.49
2017-04-04T00:52:04.922Z,5.43
2017-04-04T01:02:04.983Z,5.34
2017-04-04T01:12:04.932Z,5.25
2017-04-04T01:22:05.013Z,4.88
2017-04-04T01:32:04.967Z,5.07
2017-04-04T01:42:04.911Z,4.73
2017-04-04T01:52:05.332Z,4.96
2017-04-04T02:02:04.963Z,4.7
2017-04-04T02:12:04.908Z,4.34
2017-04-04T02:22:05.356Z,4.12
2017-04-04T02:32:04.933Z,3.86
2017-04-04T02:42:04.887Z,3.88
2017-04-04T02:52:04.968Z,3.79
2017-04-04T03:02:04.914Z,4
2017-04-04T03:12:04.968Z,3.8
2017-04-04T03:22:04.955Z,3.78
2017-04-04T03:32:04.888Z,3.72
2017-04-04T03:42:04.962Z,3.72
2017-04-04T03:52:05.940Z,3.42
2017-04-04T04:02:04.878Z,3.31
2017-04-04T04:12:04.964Z,3.3
2017-04-04T04:22:04.939Z,3.42
2017-04-04T04:32:04.983Z,3.43
2017-04-04T04:42:04.931Z,3.2
2017-04-04T04:52:04.978Z,3.27
2017-04-04T05:02:04.908Z,2.89
2017-04-04T05:12:04.932Z,3.03
2017-04-04T05:22:04.832Z,3.06
2017-04-04T05:32:04.838Z,3.24
2017-04-04T05:42:04.836Z,3.65
2017-04-04T05:52:04.830Z,4.04
2017-04-04T06:02:04.825Z,4.4
2017-04-04T06:12:04.833Z,4.83
2017-04-04T06:22:04.838Z,5.16
2017-04-04T06:32:04.826Z,5.73
2017-04-04T06:42:04.813Z,6.09
2017-04-04T06:52:04.834Z,6.76
2017-04-04T07:02:04.804Z,7.02
2017-04-04T07:12:04.826Z,7.58
2017-04-04T07:22:04.812Z,8.04
2017-04-04T07:32:04.824Z,8.51
2017-04-04T07:42:04.817Z,8.87
2017-04-04T07:52:04.817Z,9.34
2017-04-04T08:02:04.806Z,9.79
2017-04-04T08:12:04.824Z,10.12
2017-04-04T08:22:04.813Z,10.47
2017-04-04T08:32:04.799Z,10.77
2017-04-04T08:42:04.830Z,10.99
2017-04-04T08:52:04.831Z,11.32
2017-04-04T09:02:04.805Z,11.52
2017-04-04T09:12:04.798Z,11.74
2017-04-04T09:22:04.840Z,11.94
2017-04-04T09:32:04.808Z,12.19
2017-04-04T09:42:04.804Z,12.48
2017-04-04T09:52:04.826Z,12.71
2017-04-04T10:02:04.813Z,13
2017-04-04T10:12:04.803Z,13.22
2017-04-04T10:22:04.825Z,13.32
2017-04-04T10:32:04.802Z,13.61
2017-04-04T10:42:04.972Z,13.73
2017-04-04T10:52:04.809Z,13.94
2017-04-04T11:02:04.794Z,14.04
2017-04-04T11:12:04.828Z,14.2
2017-04-04T11:22:04.816Z,14.34
2017-04-04T11:32:04.802Z,14.37
2017-04-04T11:42:04.795Z,14.64
2017-04-04T11:52:04.836Z,14.67
2017-04-04T12:02:04.807Z,14.75
2017-04-04T12:12:04.797Z,14.98
2017-04-04T12:22:04.801Z,15.27
2017-04-04T12:32:04.786Z,15.38
2017-04-04T12:42:04.805Z,15.43
2017-04-04T12:52:04.868Z,15.68
2017-04-04T13:02:04.802Z,15.7
2017-04-04T13:12:04.804Z,15.78
2017-04-04T13:22:04.794Z,15.94
2017-04-04T13:32:04.798Z,16
2017-04-04T13:42:04.849Z,16.16
2017-04-04T13:52:04.801Z,16.35
2017-04-04T14:02:04.797Z,16.34
2017-04-04T14:12:04.789Z,16.33
2017-04-04T14:22:04.845Z,16.55
2017-04-04T14:32:04.793Z,16.63
2017-04-04T14:42:04.801Z,16.63
2017-04-04T14:52:04.802Z,16.65
2017-04-04T15:02:04.801Z,16.52
2017-04-04T15:12:04.804Z,16.67
2017-04-04T15:22:04.823Z,16.6
2017-04-04T15:32:04.811Z,16.7
2017-04-04T15:42:04.802Z,16.68
2017-04-04T15:52:04.804Z,16.62
2017-04-04T16:02:04.790Z,16.5
2017-04-04T16:12:04.794Z,16.5
2017-04-04T16:22:04.822Z,16.25
2017-04-04T16:32:04.812Z,15.97
2017-04-04T16:42:04.809Z,15.85
2017-04-04T16:52:04.810Z,15.64
2017-04-04T17:02:04.820Z,15.41
2017-04-04T17:12:04.828Z,15.17
2017-04-04T17:22:04.832Z,14.71
2017-04-04T17:32:04.833Z,14.24
2017-04-04T17:42:04.892Z,13.87
2017-04-04T17:52:04.822Z,13.59
2017-04-04T18:02:04.828Z,13.43
2017-04-04T18:12:04.921Z,13.36
2017-04-04T18:22:05.163Z,13.12
2017-04-04T18:32:04.838Z,12.96
2017-04-04T18:42:04.826Z,12.74
2017-04-04T18:52:04.836Z,12.41
2017-04-04T19:02:04.814Z,11.75
2017-04-04T19:12:04.836Z,11.19
2017-04-04T19:22:04.851Z,10.84
2017-04-04T19:32:04.838Z,10.51
2017-04-04T19:42:04.830Z,10.09
2017-04-04T19:52:04.822Z,9.61
2017-04-04T20:02:04.792Z,9.49
2017-04-04T20:12:04.833Z,9.24
2017-04-04T20:22:04.897Z,8.76
2017-04-04T20:32:04.818Z,8.48
2017-04-04T20:42:04.831Z,8.25
2017-04-04T20:52:04.788Z,8
2017-04-04T21:02:04.805Z,7.82
2017-04-04T21:12:04.808Z,7.9
2017-04-04T21:22:04.795Z,7.67
2017-04-04T21:32:04.793Z,7.74
2017-04-04T21:42:04.784Z,7.58
2017-04-04T21:52:04.776Z,7.38
2017-04-04T22:02:04.773Z,7.23
2017-04-04T22:12:04.835Z,7.16
2017-04-04T22:22:04.764Z,7.04
2017-04-04T22:32:04.764Z,6.91
2017-04-04T22:42:04.778Z,6.68
2017-04-04T22:52:04.788Z,6.62
2017-04-04T23:02:04.750Z,6.53
2017-04-04T23:12:04.762Z,6.4
2017-04-04T23:22:04.773Z,6.3
2017-04-04T23:32:04.756Z,6.28
2017-04-04T23:42:04.786Z,6.16
2017-04-04T23:52:04.766Z,6.06
